createdAt,value
2019-01-10T00:04:39.602Z,79
2019-01-10T00:10:05.820Z,79
2019-01-10T00:15:33.135Z,79
2019-01-10T00:21:00.456Z,79
2019-01-10T00:26:26.727Z,80
2019-01-10T00:31:54.001Z,80
2019-01-10T00:37:20.384Z,80
2019-01-10T00:42:49.344Z,80
2019-01-10T00:48:14.860Z,80
2019-01-10T00:53:41.103Z,80
2019-01-10T00:59:08.353Z,80
2019-01-10T01:04:34.624Z,80
2019-01-10T01:10:01.887Z,80
2019-01-10T01:15:28.166Z,80
2019-01-10T01:20:55.426Z,80
2019-01-10T01:26:21.629Z,80
2019-01-10T01:31:47.884Z,80
2019-01-10T01:37:15.144Z,80
2019-01-10T01:42:41.482Z,80
2019-01-10T01:48:07.674Z,81
2019-01-10T01:53:34.912Z,81
2019-01-10T01:59:02.183Z,81
2019-01-10T02:04:28.424Z,81
2019-01-10T02:09:54.642Z,81
2019-01-10T02:15:21.889Z,81
2019-01-10T02:20:49.093Z,81
2019-01-10T02:26:15.319Z,81
2019-01-10T02:31:41.557Z,81
2019-01-10T02:37:08.884Z,81
2019-01-10T02:42:34.929Z,81
2019-01-10T02:48:01.218Z,81
2019-01-10T02:53:28.360Z,81
2019-01-10T02:58:54.564Z,81
2019-01-10T03:04:21.778Z,81
2019-01-10T03:09:47.952Z,81
2019-01-10T03:15:15.202Z,82
2019-01-10T03:20:41.428Z,81
2019-01-10T03:26:08.588Z,82
2019-01-10T03:31:35.870Z,81
2019-01-10T03:37:02.099Z,81
2019-01-10T03:42:29.213Z,82
2019-01-10T03:47:55.437Z,82
2019-01-10T03:53:21.621Z,82
2019-01-10T03:58:48.851Z,82
2019-01-10T04:04:16.334Z,82
2019-01-10T04:09:42.305Z,82
2019-01-10T04:15:08.457Z,82
2019-01-10T04:20:35.677Z,82
2019-01-10T04:26:01.877Z,82
2019-01-10T04:31:29.059Z,82
2019-01-10T04:36:55.278Z,82
2019-01-10T04:42:22.455Z,82
2019-01-10T04:47:48.678Z,82
2019-01-10T04:53:14.900Z,82
2019-01-10T04:58:41.053Z,82
2019-01-10T05:04:07.249Z,82
2019-01-10T05:09:33.448Z,82
2019-01-10T05:15:00.678Z,82
2019-01-10T05:20:26.925Z,82
2019-01-10T05:25:53.128Z,82
2019-01-10T05:31:20.354Z,83
2019-01-10T05:36:47.602Z,83
2019-01-10T05:42:13.832Z,83
2019-01-10T05:47:42.900Z,83
2019-01-10T05:53:07.178Z,83
2019-01-10T05:58:33.451Z,83
2019-01-10T06:03:59.647Z,83
2019-01-10T06:09:26.788Z,83
2019-01-10T06:14:53.031Z,83
2019-01-10T06:20:19.268Z,83
2019-01-10T06:25:46.524Z,83
2019-01-10T06:31:13.716Z,83
2019-01-10T06:36:39.949Z,83
2019-01-10T06:42:06.204Z,83
2019-01-10T06:47:33.417Z,83
2019-01-10T06:53:00.692Z,83
2019-01-10T06:58:27.843Z,83
2019-01-10T07:03:54.064Z,83
2019-01-10T07:09:21.264Z,83
2019-01-10T07:14:53.476Z,83
2019-01-10T07:20:14.745Z,83
2019-01-10T07:25:40.929Z,83
2019-01-10T07:31:07.152Z,83
2019-01-10T07:36:33.376Z,83
2019-01-10T07:41:59.590Z,83
2019-01-10T07:47:26.818Z,83
2019-01-10T07:52:53.042Z,83
2019-01-10T07:58:20.420Z,83
2019-01-10T08:03:47.574Z,83
2019-01-10T08:09:14.752Z,83
2019-01-10T08:14:41.099Z,83
2019-01-10T08:20:07.222Z,83
2019-01-10T08:25:34.449Z,83
2019-01-10T08:31:00.688Z,83
2019-01-10T08:36:32.520Z,83
2019-01-10T08:41:55.217Z,83
2019-01-10T08:47:21.444Z,83
2019-01-10T08:52:47.715Z,83
2019-01-10T08:58:14.956Z,83
2019-01-10T09:03:42.311Z,83
2019-01-10T09:09:09.529Z,83
2019-01-10T09:14:35.878Z,83
2019-01-10T09:20:02.129Z,83
2019-01-10T09:25:29.304Z,83
2019-01-10T09:30:56.543Z,83
2019-01-10T09:36:23.974Z,83
2019-01-10T09:41:50.333Z,83
2019-01-10T09:47:17.409Z,83
2019-01-10T09:52:44.720Z,83
2019-01-10T09:58:11.977Z,83
2019-01-10T10:03:38.286Z,83
2019-01-10T10:09:04.554Z,83
2019-01-10T10:14:30.910Z,83
2019-01-10T10:19:58.340Z,83
2019-01-10T10:25:26.026Z,83
2019-01-10T10:30:55.044Z,83
2019-01-10T10:36:19.151Z,83
2019-01-10T10:41:45.487Z,83
2019-01-10T10:47:11.780Z,83
2019-01-10T10:52:38.121Z,83
2019-01-10T10:58:04.575Z,83
2019-01-10T11:03:31.756Z,83
2019-01-10T11:08:58.120Z,83
2019-01-10T11:14:24.438Z,83
2019-01-10T11:19:51.784Z,83
2019-01-10T11:25:18.136Z,83
2019-01-10T11:30:45.476Z,83
2019-01-10T11:36:11.781Z,83
2019-01-10T11:41:38.155Z,83
2019-01-10T11:47:04.502Z,83
2019-01-10T11:52:30.830Z,83
2019-01-10T11:57:57.154Z,83
2019-01-10T12:03:24.506Z,83
2019-01-10T12:08:50.849Z,83
2019-01-10T12:14:17.213Z,83
2019-01-10T12:19:44.598Z,83
2019-01-10T12:25:11.919Z,83
2019-01-10T12:30:38.380Z,83
2019-01-10T12:36:04.627Z,83
2019-01-10T12:41:31.967Z,83
2019-01-10T12:46:58.328Z,83
2019-01-10T12:52:34.805Z,83
2019-01-10T12:57:52.091Z,83
2019-01-10T13:03:19.415Z,83
2019-01-10T13:08:45.720Z,84
2019-01-10T13:14:12.150Z,84
2019-01-10T13:19:39.420Z,84
2019-01-10T13:25:05.742Z,84
2019-01-10T13:30:33.124Z,84
2019-01-10T13:35:59.474Z,84
2019-01-10T13:41:26.858Z,84
2019-01-10T13:46:55.654Z,83
2019-01-10T13:52:20.712Z,84
2019-01-10T13:57:47.930Z,84
2019-01-10T14:03:15.303Z,84
2019-01-10T14:08:42.642Z,84
2019-01-10T14:14:08.999Z,84
2019-01-10T14:19:35.370Z,84
2019-01-10T14:25:02.878Z,84
2019-01-10T14:30:29.116Z,84
2019-01-10T14:35:55.464Z,84
2019-01-10T14:41:21.853Z,84
2019-01-10T14:46:49.188Z,84
2019-01-10T14:52:16.690Z,84
2019-01-10T14:57:43.905Z,84
2019-01-10T15:03:10.432Z,84
2019-01-10T15:08:37.623Z,84
2019-01-10T15:14:03.989Z,84
2019-01-10T15:19:31.401Z,84
2019-01-10T15:24:58.699Z,85
2019-01-10T15:30:25.082Z,85
2019-01-10T15:35:51.459Z,85
2019-01-10T15:41:18.837Z,85
2019-01-10T15:46:51.329Z,85
2019-01-10T15:52:13.234Z,85
2019-01-10T15:57:38.870Z,85
2019-01-10T16:03:05.274Z,85
2019-01-10T16:08:32.639Z,85
2019-01-10T16:13:59.956Z,85
2019-01-10T16:19:27.359Z,85
2019-01-10T16:24:54.686Z,85
2019-01-10T16:30:21.035Z,85
2019-01-10T16:35:47.434Z,86
2019-01-10T16:41:14.778Z,86
2019-01-10T16:46:41.177Z,86
2019-01-10T16:52:08.491Z,86
2019-01-10T16:57:35.860Z,86
2019-01-10T17:03:02.249Z,86
2019-01-10T17:08:29.594Z,86
2019-01-10T17:13:56.968Z,86
2019-01-10T17:19:24.329Z,86
2019-01-10T17:24:50.688Z,86
2019-01-10T17:30:17.046Z,86
2019-01-10T17:35:43.445Z,86
2019-01-10T17:41:09.872Z,87
2019-01-10T17:46:37.201Z,87
2019-01-10T17:52:04.536Z,87
2019-01-10T17:57:30.917Z,87
2019-01-10T18:02:57.288Z,87
2019-01-10T18:08:24.674Z,87
2019-01-10T18:13:51.112Z,87
2019-01-10T18:19:17.433Z,87
2019-01-10T18:24:43.793Z,87
2019-01-10T18:30:10.420Z,87
2019-01-10T18:35:37.549Z,87
2019-01-10T18:41:04.030Z,88
2019-01-10T18:46:31.339Z,88
2019-01-10T18:51:57.773Z,88
2019-01-10T18:57:25.057Z,88
2019-01-10T19:02:52.497Z,88
2019-01-10T19:08:19.830Z,88
2019-01-10T19:13:46.305Z,88
2019-01-10T19:19:12.603Z,88
2019-01-10T19:24:39.062Z,88
2019-01-10T19:30:05.417Z,88
2019-01-10T19:35:31.832Z,89
2019-01-10T19:40:59.224Z,89
2019-01-10T19:46:25.676Z,89
2019-01-10T19:51:52.061Z,89
2019-01-10T19:57:19.405Z,89
2019-01-10T20:02:46.790Z,89
2019-01-10T20:08:13.141Z,89
2019-01-10T20:13:39.545Z,89
2019-01-10T20:19:05.949Z,89
2019-01-10T20:24:32.385Z,89
2019-01-10T20:29:58.727Z,90
2019-01-10T20:35:26.137Z,90
2019-01-10T20:40:52.569Z,90
2019-01-10T20:46:19.935Z,90
2019-01-10T20:51:46.433Z,90
2019-01-10T20:57:12.739Z,90
2019-01-10T21:02:39.110Z,90
2019-01-10T21:08:06.481Z,90
2019-01-10T21:13:33.898Z,90
2019-01-10T21:19:01.402Z,90
2019-01-10T21:24:28.672Z,90
2019-01-10T21:29:56.099Z,90
2019-01-10T21:35:22.447Z,91
2019-01-10T21:40:48.871Z,91
2019-01-10T21:46:15.299Z,91
2019-01-10T21:51:42.702Z,91
2019-01-10T21:57:09.120Z,91
2019-01-10T22:02:35.886Z,91
2019-01-10T22:08:01.925Z,91
2019-01-10T22:13:32.566Z,91
2019-01-10T22:18:55.765Z,91
2019-01-10T22:24:22.236Z,91
2019-01-10T22:29:48.565Z,91
2019-01-10T22:35:15.989Z,91
2019-01-10T22:40:43.405Z,91
2019-01-10T22:46:09.828Z,91
2019-01-10T22:51:37.336Z,91
2019-01-10T22:57:03.731Z,91
2019-01-10T23:02:31.798Z,92
2019-01-10T23:07:57.567Z,92
2019-01-10T23:13:24.200Z,92
2019-01-10T23:18:54.187Z,92
2019-01-10T23:24:18.016Z,92
2019-01-10T23:29:45.498Z,92
2019-01-10T23:35:11.949Z,92
2019-01-10T23:40:39.457Z,92
2019-01-10T23:46:06.938Z,92
2019-01-10T23:51:33.456Z,92
2019-01-10T23:56:59.911Z,92
